createdAt,value
2023-04-06T00:02:02.466Z,7.09
2023-04-06T00:04:32.765Z,7.10
2023-04-06T00:07:00.662Z,7.13
2023-04-06T00:09:28.584Z,7.07
2023-04-06T00:11:56.479Z,7.10
2023-04-06T00:14:24.353Z,7.04
2023-04-06T00:16:52.322Z,7.03
2023-04-06T00:19:20.293Z,7.01
2023-04-06T00:21:49.529Z,7.01
2023-04-06T00:24:17.336Z,6.95
2023-04-06T00:26:45.431Z,6.94
2023-04-06T00:29:13.312Z,6.88
2023-04-06T00:31:41.254Z,6.96
2023-04-06T00:34:09.162Z,6.88
2023-04-06T00:36:37.008Z,6.99
2023-04-06T00:39:06.888Z,6.94
2023-04-06T00:41:34.960Z,6.99
2023-04-06T00:44:02.932Z,6.93
2023-04-06T00:46:31.309Z,6.93
2023-04-06T00:48:59.337Z,6.86
2023-04-06T00:51:27.718Z,6.85
2023-04-06T00:53:55.884Z,6.78
2023-04-06T00:56:27.334Z,6.78
2023-04-06T00:58:55.986Z,6.85
2023-04-06T01:01:25.127Z,6.78
2023-04-06T01:03:56.276Z,6.76
2023-04-06T01:06:24.872Z,6.66
2023-04-06T01:08:59.714Z,6.71
2023-04-06T01:11:30.143Z,6.69
2023-04-06T01:13:58.158Z,6.76
2023-04-06T01:16:36.136Z,6.72
2023-04-06T01:19:13.434Z,6.68
2023-04-06T01:21:46.394Z,6.63
2023-04-06T01:24:30.008Z,6.59
2023-04-06T01:27:05.158Z,6.58
2023-04-06T01:29:56.826Z,6.54
2023-04-06T01:32:42.031Z,6.53
2023-04-06T01:35:13.039Z,6.39
2023-04-06T01:37:48.238Z,6.49
2023-04-06T01:40:25.461Z,6.42
2023-04-06T01:42:54.079Z,6.43
2023-04-06T01:45:30.677Z,6.49
2023-04-06T01:48:05.360Z,6.42
2023-04-06T01:50:33.275Z,6.36
2023-04-06T01:53:01.418Z,6.30
2023-04-06T01:55:32.808Z,6.37
2023-04-06T01:58:26.526Z,6.35
2023-04-06T02:00:55.351Z,6.32
2023-04-06T02:03:23.452Z,6.36
2023-04-06T02:06:00.266Z,6.26
2023-04-06T02:08:34.561Z,6.29
2023-04-06T02:11:04.354Z,6.30
2023-04-06T02:13:39.116Z,6.21
2023-04-06T02:16:07.616Z,6.10
2023-04-06T02:18:35.728Z,6.09
2023-04-06T02:21:03.707Z,6.05
2023-04-06T02:23:31.761Z,6.06
2023-04-06T02:25:59.647Z,6.07
2023-04-06T02:28:28.831Z,6.17
2023-04-06T02:30:56.694Z,6.04
2023-04-06T02:33:28.268Z,6.21
2023-04-06T02:35:56.447Z,6.14
2023-04-06T02:38:24.631Z,6.19
2023-04-06T02:40:53.811Z,6.19
2023-04-06T02:43:28.025Z,6.14
2023-04-06T02:46:16.433Z,6.04
2023-04-06T02:48:44.396Z,5.95
2023-04-06T02:51:12.284Z,5.93
2023-04-06T02:53:43.188Z,5.91
2023-04-06T02:56:11.437Z,5.82
2023-04-06T02:58:48.139Z,5.82
2023-04-06T03:01:16.397Z,5.74
2023-04-06T03:03:44.860Z,5.75
2023-04-06T03:06:20.455Z,5.74
2023-04-06T03:08:50.677Z,5.74
2023-04-06T03:11:18.593Z,5.72
2023-04-06T03:13:48.336Z,5.74
2023-04-06T03:16:16.568Z,5.77
2023-04-06T03:18:46.088Z,5.84
2023-04-06T03:21:16.186Z,5.80
2023-04-06T03:23:52.422Z,5.72
2023-04-06T03:26:20.620Z,5.72
2023-04-06T03:28:49.827Z,5.71
2023-04-06T03:31:18.458Z,5.77
2023-04-06T03:33:57.642Z,5.76
2023-04-06T03:36:32.762Z,5.73
2023-04-06T03:39:01.759Z,5.74
2023-04-06T03:41:32.335Z,5.72
2023-04-06T03:44:27.664Z,5.69
2023-04-06T03:46:55.635Z,5.74
2023-04-06T03:49:24.028Z,5.65
2023-04-06T03:51:55.003Z,5.68
2023-04-06T03:54:23.018Z,5.55
2023-04-06T03:56:50.834Z,5.62
2023-04-06T03:59:19.613Z,5.64
2023-04-06T04:01:48.893Z,5.57
2023-04-06T04:04:16.837Z,5.53
2023-04-06T04:06:44.885Z,5.49
2023-04-06T04:09:12.792Z,5.45
2023-04-06T04:11:40.882Z,5.44
2023-04-06T04:14:08.724Z,5.47
2023-04-06T04:16:36.632Z,5.47
2023-04-06T04:19:06.099Z,5.43
2023-04-06T04:21:34.266Z,5.29
2023-04-06T04:24:09.698Z,5.35
2023-04-06T04:26:39.352Z,5.38
2023-04-06T04:29:08.566Z,5.42
2023-04-06T04:31:38.294Z,5.44
2023-04-06T04:34:13.357Z,5.42
2023-04-06T04:36:42.509Z,5.39
2023-04-06T04:39:14.146Z,5.40
2023-04-06T04:41:46.473Z,5.27
2023-04-06T04:44:14.616Z,5.41
2023-04-06T04:46:43.847Z,5.35
2023-04-06T04:49:14.607Z,5.34
2023-04-06T04:51:43.326Z,5.27
2023-04-06T04:54:18.866Z,5.26
2023-04-06T04:56:47.205Z,5.23
2023-04-06T04:59:34.584Z,5.18
2023-04-06T05:02:10.914Z,5.18
2023-04-06T05:04:49.807Z,5.23
2023-04-06T05:07:22.893Z,5.20
2023-04-06T05:09:52.899Z,5.26
2023-04-06T05:12:23.021Z,5.30
2023-04-06T05:15:01.618Z,5.26
2023-04-06T05:17:29.998Z,5.17
2023-04-06T05:19:59.778Z,5.30
2023-04-06T05:22:29.141Z,5.44
2023-04-06T05:25:07.172Z,5.42
2023-04-06T05:27:35.574Z,5.48
2023-04-06T05:30:10.610Z,5.48
2023-04-06T05:32:46.916Z,5.53
2023-04-06T05:35:18.221Z,5.59
2023-04-06T05:37:49.955Z,5.65
2023-04-06T05:40:20.427Z,5.65
2023-04-06T05:42:48.569Z,5.67
2023-04-06T05:45:19.505Z,5.74
2023-04-06T05:47:52.971Z,5.74
2023-04-06T05:50:27.555Z,5.56
2023-04-06T05:52:55.575Z,5.80
2023-04-06T05:55:26.192Z,5.80
2023-04-06T05:58:06.371Z,5.88
2023-04-06T06:00:34.458Z,5.89
2023-04-06T06:03:07.117Z,5.85
2023-04-06T06:05:37.872Z,5.90
2023-04-06T06:08:13.380Z,5.96
2023-04-06T06:10:42.127Z,5.99
2023-04-06T06:13:12.814Z,5.90
2023-04-06T06:15:41.030Z,5.99
2023-04-06T06:18:09.337Z,5.95
2023-04-06T06:20:38.690Z,6.04
2023-04-06T06:23:07.493Z,6.08
2023-04-06T06:25:41.655Z,6.05
2023-04-06T06:28:10.379Z,6.11
2023-04-06T06:30:43.315Z,6.07
2023-04-06T06:33:11.257Z,6.17
2023-04-06T06:35:41.028Z,6.22
2023-04-06T06:38:09.100Z,6.22
2023-04-06T06:40:37.829Z,6.21
2023-04-06T06:43:05.814Z,6.31
2023-04-06T06:45:37.838Z,6.34
2023-04-06T06:48:05.865Z,6.39
2023-04-06T06:50:33.812Z,6.48
2023-04-06T06:53:03.402Z,6.51
2023-04-06T06:55:34.350Z,6.41
2023-04-06T06:58:02.369Z,6.54
2023-04-06T07:00:30.616Z,6.63
2023-04-06T07:02:58.809Z,6.65
2023-04-06T07:05:29.269Z,6.71
2023-04-06T07:07:59.628Z,6.79
2023-04-06T07:10:29.265Z,6.85
2023-04-06T07:12:57.270Z,6.92
2023-04-06T07:15:25.501Z,7.00
2023-04-06T07:17:55.546Z,7.11
2023-04-06T07:20:23.978Z,7.19
2023-04-06T07:22:51.927Z,7.27
2023-04-06T07:25:19.834Z,7.37
2023-04-06T07:27:49.141Z,7.52
2023-04-06T07:30:19.167Z,7.61
2023-04-06T07:32:47.333Z,7.71
2023-04-06T07:35:18.950Z,7.77
2023-04-06T07:37:47.062Z,7.91
2023-04-06T07:40:15.096Z,7.82
2023-04-06T07:42:46.441Z,8.13
2023-04-06T07:45:16.886Z,8.17
2023-04-06T07:47:45.712Z,8.20
2023-04-06T07:50:13.933Z,8.26
2023-04-06T07:52:41.890Z,8.31
2023-04-06T07:55:11.136Z,8.37
2023-04-06T07:57:38.979Z,8.45
2023-04-06T08:00:09.459Z,8.50
2023-04-06T08:02:44.404Z,8.51
2023-04-06T08:05:12.389Z,8.55
2023-04-06T08:07:40.698Z,8.55
2023-04-06T08:10:09.037Z,8.57
2023-04-06T08:12:37.112Z,8.65
2023-04-06T08:15:05.665Z,8.75
2023-04-06T08:17:35.007Z,8.70
2023-04-06T08:20:05.356Z,8.75
2023-04-06T08:22:33.332Z,8.82
2023-04-06T08:25:01.265Z,8.91
2023-04-06T08:27:29.189Z,8.98
2023-04-06T08:29:57.017Z,9.03
2023-04-06T08:32:24.897Z,9.03
2023-04-06T08:34:55.298Z,9.15
2023-04-06T08:37:25.086Z,9.13
2023-04-06T08:39:53.085Z,9.16
2023-04-06T08:42:22.582Z,9.24
2023-04-06T08:44:52.221Z,9.30
2023-04-06T08:47:23.931Z,9.38
2023-04-06T08:49:53.480Z,9.40
2023-04-06T08:52:21.744Z,9.45
2023-04-06T08:54:51.002Z,9.41
2023-04-06T08:57:20.870Z,9.50
2023-04-06T08:59:49.541Z,9.55
2023-04-06T09:02:20.269Z,9.64
2023-04-06T09:04:49.733Z,9.77
2023-04-06T09:07:18.657Z,9.67
2023-04-06T09:09:49.604Z,9.98
2023-04-06T09:12:29.620Z,9.94
2023-04-06T09:14:58.507Z,10.19
2023-04-06T09:17:28.140Z,10.17
2023-04-06T09:19:56.811Z,10.11
2023-04-06T09:22:25.635Z,10.49
2023-04-06T09:24:55.172Z,10.57
2023-04-06T09:27:34.384Z,10.77
2023-04-06T09:30:07.137Z,10.79
2023-04-06T09:32:45.732Z,10.89
2023-04-06T09:35:14.006Z,10.95
2023-04-06T09:37:41.870Z,11.01
2023-04-06T09:40:10.398Z,11.14
2023-04-06T09:42:39.631Z,11.22
2023-04-06T09:45:08.679Z,11.25
2023-04-06T09:47:38.547Z,11.31
2023-04-06T09:50:09.421Z,11.30
2023-04-06T09:52:42.673Z,11.37
2023-04-06T09:55:11.783Z,11.46
2023-04-06T09:57:47.709Z,11.51
2023-04-06T10:00:22.368Z,11.54
2023-04-06T10:02:54.133Z,11.63
2023-04-06T10:05:29.466Z,11.79
2023-04-06T10:08:01.874Z,11.90
2023-04-06T10:10:31.383Z,11.90
2023-04-06T10:13:01.057Z,12.09
2023-04-06T10:15:30.427Z,12.15
2023-04-06T10:17:58.959Z,12.11
2023-04-06T10:20:31.580Z,12.30
2023-04-06T10:23:04.011Z,12.45
2023-04-06T10:25:32.866Z,12.66
2023-04-06T10:28:07.927Z,12.81
2023-04-06T10:30:36.144Z,12.95
2023-04-06T10:33:14.918Z,12.98
2023-04-06T10:35:46.510Z,12.93
2023-04-06T10:38:15.063Z,13.02
2023-04-06T10:40:45.674Z,13.19
2023-04-06T10:43:20.119Z,13.20
2023-04-06T10:45:57.348Z,13.48
2023-04-06T10:48:26.384Z,13.55
2023-04-06T10:50:55.173Z,13.51
2023-04-06T10:53:24.180Z,13.54
2023-04-06T10:55:53.047Z,13.47
2023-04-06T10:58:22.418Z,13.48
2023-04-06T11:00:51.926Z,13.65
2023-04-06T11:03:20.490Z,13.66
2023-04-06T11:05:49.132Z,13.68
2023-04-06T11:08:27.862Z,13.56
2023-04-06T11:11:06.478Z,13.59
2023-04-06T11:13:41.310Z,13.62
2023-04-06T11:16:13.904Z,13.65
2023-04-06T11:18:49.750Z,13.70
2023-04-06T11:21:17.687Z,13.68
2023-04-06T11:23:45.638Z,13.54
2023-04-06T11:26:13.956Z,13.53
2023-04-06T11:28:44.000Z,13.47
2023-04-06T11:31:12.850Z,13.37
2023-04-06T11:33:40.887Z,13.31
2023-04-06T11:36:09.474Z,13.38
2023-04-06T11:38:41.440Z,13.31
2023-04-06T11:41:09.366Z,13.27
2023-04-06T11:43:37.211Z,13.32
2023-04-06T11:46:07.784Z,13.35
2023-04-06T11:48:46.660Z,13.43
2023-04-06T11:51:23.453Z,13.44
2023-04-06T11:53:51.877Z,13.52
2023-04-06T11:56:30.225Z,13.45
2023-04-06T11:59:00.838Z,13.34
2023-04-06T12:01:34.136Z,13.30
2023-04-06T12:04:05.001Z,13.37
2023-04-06T12:06:32.964Z,13.40
2023-04-06T12:09:00.946Z,13.52
2023-04-06T12:11:28.805Z,13.66
2023-04-06T12:13:56.745Z,13.72
2023-04-06T12:16:25.222Z,13.58
2023-04-06T12:18:54.672Z,13.54
2023-04-06T12:21:22.627Z,13.50
2023-04-06T12:23:50.502Z,13.44
2023-04-06T12:26:18.329Z,13.43
2023-04-06T12:28:46.533Z,13.47
2023-04-06T12:31:17.845Z,13.44
2023-04-06T12:33:46.262Z,13.55
2023-04-06T12:36:16.664Z,13.54
2023-04-06T12:38:46.703Z,13.48
2023-04-06T12:41:15.028Z,13.41
2023-04-06T12:43:45.046Z,13.36
2023-04-06T12:46:13.063Z,13.43
2023-04-06T12:48:41.315Z,13.39
2023-04-06T12:51:09.455Z,13.45
2023-04-06T12:53:38.674Z,13.52
2023-04-06T12:56:15.697Z,13.52
2023-04-06T12:58:43.761Z,13.56
2023-04-06T13:01:13.726Z,13.62
2023-04-06T13:03:41.780Z,13.62
2023-04-06T13:06:10.413Z,13.66
2023-04-06T13:08:40.985Z,13.61
2023-04-06T13:11:09.993Z,13.43
2023-04-06T13:13:38.788Z,13.38
2023-04-06T13:16:09.415Z,13.31
2023-04-06T13:18:39.662Z,13.24
2023-04-06T13:21:08.469Z,13.19
2023-04-06T13:23:37.135Z,13.22
2023-04-06T13:26:08.506Z,13.24
2023-04-06T13:28:38.655Z,13.33
2023-04-06T13:31:06.776Z,13.25
2023-04-06T13:33:35.192Z,13.24
2023-04-06T13:36:03.115Z,13.13
2023-04-06T13:38:32.616Z,13.07
2023-04-06T13:41:00.547Z,12.99
2023-04-06T13:43:29.875Z,13.01
2023-04-06T13:46:00.987Z,12.96
2023-04-06T13:48:28.869Z,13.06
2023-04-06T13:50:56.737Z,13.01
2023-04-06T13:53:24.442Z,12.91
2023-04-06T13:55:56.076Z,12.75
2023-04-06T13:58:23.981Z,12.67
2023-04-06T14:00:53.791Z,12.63
2023-04-06T14:03:22.057Z,12.38
2023-04-06T14:05:49.844Z,12.39
2023-04-06T14:08:17.721Z,12.36
2023-04-06T14:10:45.546Z,12.30
2023-04-06T14:13:13.309Z,12.26
2023-04-06T14:15:41.329Z,12.23
2023-04-06T14:18:11.431Z,12.21
2023-04-06T14:20:39.300Z,12.21
2023-04-06T14:23:07.165Z,12.20
2023-04-06T14:25:35.888Z,12.14
2023-04-06T14:28:03.879Z,12.05
2023-04-06T14:30:32.273Z,12.10
2023-04-06T14:33:00.201Z,12.13
2023-04-06T14:35:29.488Z,12.13
2023-04-06T14:37:58.919Z,12.20
2023-04-06T14:40:26.867Z,12.18
2023-04-06T14:42:56.466Z,12.19
2023-04-06T14:45:24.425Z,12.28
2023-04-06T14:47:52.446Z,12.30
2023-04-06T14:50:20.255Z,12.26
2023-04-06T14:52:49.308Z,12.19
2023-04-06T14:55:17.271Z,12.15
2023-04-06T14:57:45.015Z,12.05
2023-04-06T15:00:14.340Z,12.00
2023-04-06T15:02:44.192Z,11.84
2023-04-06T15:05:12.254Z,11.79
2023-04-06T15:07:39.940Z,11.71
2023-04-06T15:10:12.258Z,11.53
2023-04-06T15:12:40.278Z,11.65
2023-04-06T15:15:08.959Z,11.57
2023-04-06T15:17:36.744Z,11.57
2023-04-06T15:20:04.932Z,11.48
2023-04-06T15:22:32.694Z,11.55
2023-04-06T15:25:00.597Z,11.51
2023-04-06T15:27:29.706Z,11.44
2023-04-06T15:29:59.343Z,11.39
2023-04-06T15:32:27.843Z,11.37
2023-04-06T15:34:56.046Z,11.35
2023-04-06T15:37:23.812Z,11.26
2023-04-06T15:39:51.720Z,11.24
2023-04-06T15:42:19.464Z,11.17
2023-04-06T15:44:48.577Z,11.20
2023-04-06T15:47:16.358Z,11.11
2023-04-06T15:49:44.140Z,11.17
2023-04-06T15:52:11.882Z,11.07
2023-04-06T15:54:41.095Z,11.10
2023-04-06T15:57:09.311Z,11.09
2023-04-06T15:59:37.064Z,11.08
2023-04-06T16:02:06.305Z,10.96
2023-04-06T16:04:34.235Z,10.96
2023-04-06T16:07:02.068Z,10.94
2023-04-06T16:09:29.783Z,10.92
2023-04-06T16:11:57.683Z,10.92
2023-04-06T16:14:25.676Z,10.85
2023-04-06T16:16:53.750Z,10.91
2023-04-06T16:19:22.838Z,10.84
2023-04-06T16:21:51.386Z,10.89
2023-04-06T16:24:19.035Z,10.91
2023-04-06T16:26:48.260Z,10.87
2023-04-06T16:29:17.135Z,10.88
2023-04-06T16:31:47.062Z,10.80
2023-04-06T16:34:15.545Z,10.85
2023-04-06T16:36:44.712Z,10.82
2023-04-06T16:39:12.463Z,10.80
2023-04-06T16:41:40.932Z,10.73
2023-04-06T16:44:09.233Z,10.80
2023-04-06T16:46:38.352Z,10.75
2023-04-06T16:49:07.026Z,10.71
2023-04-06T16:51:36.964Z,10.73
2023-04-06T16:54:06.191Z,10.65
2023-04-06T16:56:34.044Z,10.61
2023-04-06T16:59:01.829Z,10.52
2023-04-06T17:01:30.420Z,10.46
2023-04-06T17:03:58.493Z,10.51
2023-04-06T17:06:28.055Z,10.59
2023-04-06T17:08:55.994Z,10.58
2023-04-06T17:11:29.041Z,10.62
2023-04-06T17:14:03.928Z,10.44
2023-04-06T17:16:33.502Z,10.52
2023-04-06T17:19:01.614Z,10.55
2023-04-06T17:21:29.437Z,10.57
2023-04-06T17:23:57.364Z,10.47
2023-04-06T17:26:26.538Z,10.41
2023-04-06T17:28:54.371Z,10.31
2023-04-06T17:31:22.515Z,10.37
2023-04-06T17:33:50.378Z,10.36
2023-04-06T17:36:19.830Z,10.31
2023-04-06T17:38:48.336Z,10.35
2023-04-06T17:41:16.234Z,10.38
2023-04-06T17:43:45.481Z,10.39
2023-04-06T17:46:13.395Z,10.39
2023-04-06T17:48:41.683Z,10.44
2023-04-06T17:51:09.388Z,10.33
2023-04-06T17:53:37.379Z,10.30
2023-04-06T17:56:05.468Z,10.33
2023-04-06T17:58:33.847Z,10.14
2023-04-06T18:01:08.218Z,10.20
2023-04-06T18:03:36.232Z,10.15
2023-04-06T18:06:10.950Z,10.12
2023-04-06T18:08:41.559Z,10.13
2023-04-06T18:11:15.712Z,10.08
2023-04-06T18:13:43.587Z,10.03
2023-04-06T18:16:12.738Z,10.13
2023-04-06T18:18:41.063Z,10.14
2023-04-06T18:21:09.565Z,10.09
2023-04-06T18:23:38.003Z,10.10
2023-04-06T18:26:06.931Z,10.07
2023-04-06T18:28:35.488Z,10.09
2023-04-06T18:31:03.290Z,10.13
2023-04-06T18:33:34.029Z,10.16
2023-04-06T18:36:02.061Z,10.18
2023-04-06T18:38:29.818Z,10.17
2023-04-06T18:40:57.715Z,10.16
2023-04-06T18:43:26.164Z,10.11
2023-04-06T18:45:53.776Z,10.09
2023-04-06T18:48:21.684Z,10.07
2023-04-06T18:50:54.960Z,10.02
2023-04-06T18:53:22.697Z,10.15
2023-04-06T18:55:51.602Z,10.08
2023-04-06T18:58:19.338Z,10.06
2023-04-06T19:00:47.122Z,10.08
2023-04-06T19:03:15.193Z,10.06
2023-04-06T19:05:43.109Z,10.09
2023-04-06T19:08:13.339Z,10.03
2023-04-06T19:10:41.592Z,10.07
2023-04-06T19:13:09.538Z,10.02
2023-04-06T19:15:37.328Z,10.02
2023-04-06T19:18:05.701Z,9.86
2023-04-06T19:20:35.115Z,10.02
2023-04-06T19:23:03.839Z,9.90
2023-04-06T19:25:33.145Z,9.97
2023-04-06T19:28:01.608Z,10.01
2023-04-06T19:30:29.456Z,9.90
2023-04-06T19:32:57.567Z,10.05
2023-04-06T19:35:25.446Z,9.98
2023-04-06T19:37:53.256Z,10.01
2023-04-06T19:40:21.219Z,9.98
2023-04-06T19:42:50.471Z,10.01
2023-04-06T19:45:18.254Z,10.00
2023-04-06T19:47:46.207Z,9.86
2023-04-06T19:50:14.005Z,9.97
2023-04-06T19:52:42.220Z,9.97
2023-04-06T19:55:10.123Z,9.82
2023-04-06T19:57:38.471Z,9.81
2023-04-06T20:00:09.215Z,9.76
2023-04-06T20:02:40.368Z,9.92
2023-04-06T20:05:08.834Z,9.86
2023-04-06T20:07:37.808Z,9.85
2023-04-06T20:10:07.732Z,9.95
2023-04-06T20:12:36.056Z,9.48
2023-04-06T20:15:04.133Z,9.95
2023-04-06T20:17:33.298Z,9.97
2023-04-06T20:20:01.317Z,9.91
2023-04-06T20:22:29.159Z,9.84
2023-04-06T20:24:56.856Z,9.85
2023-04-06T20:27:24.670Z,9.87
2023-04-06T20:29:52.420Z,9.91
2023-04-06T20:32:21.102Z,9.92
2023-04-06T20:34:51.084Z,9.88
2023-04-06T20:37:19.538Z,9.91
2023-04-06T20:39:47.763Z,9.85
2023-04-06T20:42:16.496Z,9.83
2023-04-06T20:44:44.281Z,9.80
2023-04-06T20:47:12.041Z,9.80
2023-04-06T20:49:39.788Z,9.79
2023-04-06T20:52:08.924Z,9.83
2023-04-06T20:54:36.614Z,9.73
2023-04-06T20:57:04.407Z,9.62
2023-04-06T20:59:32.123Z,9.68
2023-04-06T21:02:00.031Z,9.77
2023-04-06T21:04:28.125Z,9.83
2023-04-06T21:06:55.952Z,9.80
2023-04-06T21:09:26.715Z,9.75
2023-04-06T21:11:54.457Z,9.79
2023-04-06T21:14:22.725Z,9.76
2023-04-06T21:16:51.894Z,9.79
2023-04-06T21:19:19.613Z,9.77
2023-04-06T21:21:47.448Z,9.73
2023-04-06T21:24:15.589Z,9.72
2023-04-06T21:26:45.012Z,9.72
2023-04-06T21:29:12.845Z,9.79
2023-04-06T21:31:42.243Z,9.72
2023-04-06T21:34:10.981Z,9.69
2023-04-06T21:36:38.886Z,9.70
2023-04-06T21:39:07.329Z,9.68
2023-04-06T21:41:35.728Z,9.68
2023-04-06T21:44:04.933Z,9.77
2023-04-06T21:46:33.241Z,9.81
2023-04-06T21:49:01.225Z,9.79
2023-04-06T21:51:29.053Z,9.86
2023-04-06T21:53:56.780Z,9.87
2023-04-06T21:56:26.077Z,9.85
2023-04-06T21:58:54.619Z,9.90
2023-04-06T22:01:23.687Z,9.82
2023-04-06T22:03:52.802Z,9.82
2023-04-06T22:06:22.107Z,9.81
2023-04-06T22:08:49.819Z,9.85
2023-04-06T22:11:17.758Z,9.77
2023-04-06T22:13:45.782Z,9.79
2023-04-06T22:16:14.511Z,9.79
2023-04-06T22:18:43.656Z,9.77
2023-04-06T22:21:11.369Z,9.80
2023-04-06T22:23:42.255Z,9.78
2023-04-06T22:26:10.714Z,9.72
2023-04-06T22:28:39.049Z,9.81
2023-04-06T22:31:06.923Z,9.80
2023-04-06T22:33:34.751Z,9.83
2023-04-06T22:36:03.915Z,9.84
2023-04-06T22:38:31.695Z,9.88
2023-04-06T22:40:59.483Z,9.86
2023-04-06T22:43:27.186Z,9.83
2023-04-06T22:45:54.904Z,9.82
2023-04-06T22:48:22.697Z,9.87
2023-04-06T22:50:50.569Z,9.88
2023-04-06T22:53:19.717Z,9.94
2023-04-06T22:55:47.398Z,9.88
2023-04-06T22:58:15.355Z,9.94
2023-04-06T23:00:43.062Z,9.81
2023-04-06T23:03:10.965Z,9.83
2023-04-06T23:05:38.736Z,9.85
2023-04-06T23:08:06.820Z,9.87
2023-04-06T23:10:38.535Z,9.85
2023-04-06T23:13:06.377Z,9.87
2023-04-06T23:15:34.098Z,9.87
2023-04-06T23:18:02.033Z,9.91
2023-04-06T23:20:29.935Z,9.90
2023-04-06T23:22:57.708Z,9.89
2023-04-06T23:25:25.488Z,9.88
2023-04-06T23:27:54.643Z,9.71
2023-04-06T23:30:22.482Z,9.88
2023-04-06T23:32:50.364Z,9.83
2023-04-06T23:35:18.352Z,9.90
2023-04-06T23:37:46.206Z,9.87
2023-04-06T23:40:14.020Z,9.82
2023-04-06T23:42:41.707Z,9.77
2023-04-06T23:45:11.445Z,9.89
2023-04-06T23:47:39.220Z,9.92
2023-04-06T23:50:08.221Z,9.86
2023-04-06T23:52:36.114Z,9.79
2023-04-06T23:55:03.965Z,9.88
2023-04-06T23:57:31.692Z,9.83
